createdAt,value
2022-10-25T00:01:18.819Z,5.82
2022-10-25T00:03:48.580Z,5.75
2022-10-25T00:06:18.653Z,6.90
2022-10-25T00:08:48.183Z,7.20
2022-10-25T00:11:22.729Z,6.78
2022-10-25T00:13:54.968Z,5.57
2022-10-25T00:16:27.711Z,7.75
2022-10-25T00:21:27.083Z,5.93
2022-10-25T00:23:56.448Z,5.20
2022-10-25T00:26:25.851Z,6.40
2022-10-25T00:28:57.670Z,6.88
2022-10-25T00:31:27.614Z,7.30
2022-10-25T00:33:57.054Z,6.70
2022-10-25T00:36:28.835Z,6.18
2022-10-25T00:39:00.375Z,5.07
2022-10-25T00:41:32.794Z,7.78
2022-10-25T00:44:51.887Z,7.13
2022-10-25T00:47:40.341Z,6.38
2022-10-25T00:51:33.898Z,5.45
2022-10-25T00:54:03.983Z,6.50
2022-10-25T00:56:38.474Z,6.10
2022-10-25T00:59:14.104Z,5.95
2022-10-25T01:01:44.795Z,8.00
2022-10-25T01:04:18.335Z,8.13
2022-10-25T01:06:53.676Z,9.18
2022-10-25T01:09:27.432Z,7.30
2022-10-25T01:11:56.833Z,6.93
2022-10-25T01:14:27.251Z,7.40
2022-10-25T01:17:08.733Z,7.35
2022-10-25T01:20:17.982Z,7.75
2022-10-25T01:22:59.207Z,6.43
2022-10-25T01:26:03.934Z,6.20
2022-10-25T01:28:48.733Z,5.82
2022-10-25T01:31:33.100Z,7.53
2022-10-25T01:34:09.301Z,6.82
2022-10-25T01:36:47.726Z,8.95
2022-10-25T01:39:22.538Z,4.88
2022-10-25T01:42:06.426Z,5.45
2022-10-25T01:44:49.456Z,3.75
2022-10-25T01:47:23.033Z,5.53
2022-10-25T01:50:01.141Z,7.75
2022-10-25T01:52:31.028Z,5.68
2022-10-25T01:55:00.706Z,7.47
2022-10-25T01:57:50.375Z,6.82
2022-10-25T02:00:21.634Z,8.27
2022-10-25T02:03:08.262Z,7.40
2022-10-25T02:05:53.986Z,7.30
2022-10-25T02:08:32.040Z,9.35
2022-10-25T02:11:11.115Z,5.50
2022-10-25T02:13:55.283Z,8.30
2022-10-25T02:16:28.999Z,7.43
2022-10-25T02:19:05.027Z,9.05
2022-10-25T02:21:37.994Z,6.20
2022-10-25T02:24:13.944Z,5.80
2022-10-25T02:26:45.210Z,7.72
2022-10-25T02:29:17.031Z,4.93
2022-10-25T02:31:46.984Z,6.68
2022-10-25T02:34:19.157Z,5.55
2022-10-25T02:36:51.790Z,4.82
2022-10-25T02:41:51.774Z,9.70
2022-10-25T02:44:21.171Z,5.88
2022-10-25T02:46:50.646Z,10.48
2022-10-25T02:49:21.664Z,6.97
2022-10-25T02:54:21.628Z,5.85
2022-10-25T02:56:52.712Z,9.50
2022-10-25T02:59:22.572Z,6.95
2022-10-25T03:01:51.893Z,6.18
2022-10-25T03:04:22.830Z,8.20
2022-10-25T03:06:52.227Z,6.78
2022-10-25T03:09:21.721Z,7.78
2022-10-25T03:11:51.046Z,5.60
2022-10-25T03:14:20.350Z,5.95
2022-10-25T03:16:49.826Z,5.25
2022-10-25T03:19:19.286Z,4.88
2022-10-25T03:21:50.112Z,6.63
2022-10-25T03:24:19.642Z,6.38
2022-10-25T03:26:48.989Z,7.03
2022-10-25T03:29:18.428Z,8.10
2022-10-25T03:31:47.806Z,9.10
2022-10-25T03:34:17.219Z,5.93
2022-10-25T03:36:46.691Z,6.03
2022-10-25T03:39:17.706Z,6.55
2022-10-25T03:41:47.085Z,6.65
2022-10-25T03:44:16.517Z,7.95
2022-10-25T03:46:46.067Z,5.63
2022-10-25T03:52:27.871Z,6.95
2022-10-25T03:54:57.372Z,9.38
2022-10-25T03:57:26.894Z,5.10
2022-10-25T03:59:58.038Z,8.63
2022-10-25T04:02:27.544Z,6.00
2022-10-25T04:04:57.246Z,6.45
2022-10-25T04:07:28.177Z,6.97
2022-10-25T04:09:57.590Z,9.65
2022-10-25T04:12:27.008Z,6.93
2022-10-25T04:14:56.481Z,9.07
2022-10-25T04:17:26.028Z,7.25
2022-10-25T04:19:55.491Z,7.03
2022-10-25T04:22:26.370Z,5.57
2022-10-25T04:24:55.752Z,8.40
2022-10-25T04:27:25.215Z,6.13
2022-10-25T04:29:54.667Z,6.07
2022-10-25T04:32:24.031Z,8.30
2022-10-25T04:34:53.328Z,10.20
2022-10-25T04:37:22.700Z,7.28
2022-10-25T04:39:53.585Z,7.13
2022-10-25T04:42:22.910Z,8.32
2022-10-25T04:44:52.506Z,9.77
2022-10-25T04:47:21.819Z,6.80
2022-10-25T04:49:51.194Z,7.82
2022-10-25T04:52:20.642Z,9.82
2022-10-25T04:54:50.013Z,8.30
2022-10-25T04:57:20.854Z,8.07
2022-10-25T04:59:50.292Z,11.52
2022-10-25T05:02:19.701Z,16.80
2022-10-25T05:04:49.124Z,18.80
2022-10-25T05:07:19.675Z,25.20
2022-10-25T05:09:49.177Z,26.35
2022-10-25T05:12:19.950Z,31.45
2022-10-25T05:14:49.314Z,23.92
2022-10-25T05:17:18.687Z,14.60
2022-10-25T05:19:48.269Z,18.05
2022-10-25T05:22:17.669Z,13.50
2022-10-25T05:24:47.129Z,13.27
2022-10-25T05:27:16.671Z,12.43
2022-10-25T05:29:48.162Z,17.05
2022-10-25T05:32:17.615Z,21.27
2022-10-25T05:34:47.012Z,18.48
2022-10-25T05:37:16.394Z,20.27
2022-10-25T05:39:45.849Z,42.13
2022-10-25T05:42:15.203Z,40.22
2022-10-25T05:44:45.965Z,26.50
2022-10-25T05:47:15.351Z,27.10
2022-10-25T05:49:44.733Z,20.00
2022-10-25T05:52:14.225Z,19.17
2022-10-25T05:54:43.497Z,22.67
2022-10-25T05:57:12.813Z,34.13
2022-10-25T05:59:42.030Z,17.20
2022-10-25T06:02:13.778Z,29.45
2022-10-25T06:04:43.170Z,33.10
2022-10-25T06:07:12.540Z,34.50
2022-10-25T06:09:41.846Z,30.52
2022-10-25T06:12:12.231Z,18.50
2022-10-25T06:14:41.626Z,25.00
2022-10-25T06:17:13.086Z,18.85
2022-10-25T06:19:42.359Z,19.73
2022-10-25T06:22:11.805Z,21.02
2022-10-25T06:24:41.213Z,23.67
2022-10-25T06:27:10.647Z,26.15
2022-10-25T06:29:40.254Z,32.40
2022-10-25T06:32:09.666Z,64.78
2022-10-25T06:34:40.540Z,75.50
2022-10-25T06:37:09.994Z,49.72
2022-10-25T06:39:39.562Z,39.15
2022-10-25T06:42:08.984Z,32.92
2022-10-25T06:44:38.486Z,30.65
2022-10-25T06:47:23.161Z,30.13
2022-10-25T06:52:28.806Z,23.75
2022-10-25T06:54:58.214Z,20.02
2022-10-25T06:57:27.692Z,17.30
2022-10-25T06:59:57.038Z,15.68
2022-10-25T07:02:26.620Z,12.32
2022-10-25T07:04:56.058Z,12.70
2022-10-25T07:07:27.013Z,11.75
2022-10-25T07:09:56.247Z,11.90
2022-10-25T07:12:27.052Z,11.73
2022-10-25T07:14:56.358Z,13.02
2022-10-25T07:17:25.820Z,8.10
2022-10-25T07:19:55.132Z,8.38
2022-10-25T07:22:25.960Z,11.05
2022-10-25T07:24:55.381Z,14.18
2022-10-25T07:27:24.819Z,7.70
2022-10-25T07:29:54.227Z,13.38
2022-10-25T07:32:23.637Z,14.32
2022-10-25T07:34:53.088Z,9.23
2022-10-25T07:37:22.562Z,13.23
2022-10-25T07:39:53.438Z,9.82
2022-10-25T07:42:22.716Z,9.63
2022-10-25T07:44:52.170Z,14.70
2022-10-25T07:47:21.585Z,8.68
2022-10-25T07:49:51.043Z,9.73
2022-10-25T07:52:20.715Z,8.52
2022-10-25T07:54:51.606Z,10.38
2022-10-25T07:57:21.075Z,13.57
2022-10-25T07:59:50.467Z,11.82
2022-10-25T08:02:24.138Z,11.60
2022-10-25T08:04:55.495Z,11.80
2022-10-25T08:07:25.060Z,9.32
2022-10-25T08:09:55.912Z,9.93
2022-10-25T08:12:25.648Z,8.10
2022-10-25T08:14:55.100Z,8.68
2022-10-25T08:17:24.695Z,11.02
2022-10-25T08:19:54.103Z,12.07
2022-10-25T08:22:23.613Z,11.75
2022-10-25T08:24:54.540Z,12.90
2022-10-25T08:27:24.015Z,13.20
2022-10-25T08:29:53.477Z,10.88
2022-10-25T08:32:22.822Z,13.07
2022-10-25T08:34:52.187Z,9.00
2022-10-25T08:37:21.603Z,9.05
2022-10-25T08:39:53.550Z,9.27
2022-10-25T08:42:37.322Z,10.77
2022-10-25T08:45:21.671Z,8.47
2022-10-25T08:47:55.255Z,9.45
2022-10-25T08:50:31.788Z,11.38
2022-10-25T08:53:04.721Z,8.85
2022-10-25T08:55:44.723Z,10.48
2022-10-25T08:58:36.323Z,43.17
2022-10-25T09:01:16.317Z,9.15
2022-10-25T09:03:45.907Z,9.80
2022-10-25T09:06:25.165Z,11.68
2022-10-25T09:09:10.446Z,10.75
2022-10-25T09:11:58.054Z,8.63
2022-10-25T09:14:43.231Z,15.27
2022-10-25T09:17:20.870Z,11.50
2022-10-25T09:20:12.346Z,8.60
2022-10-25T09:22:48.764Z,11.25
2022-10-25T09:25:26.961Z,11.85
2022-10-25T09:28:03.871Z,11.85
2022-10-25T09:30:40.700Z,10.43
2022-10-25T09:33:14.198Z,10.85
2022-10-25T09:35:47.026Z,8.52
2022-10-25T09:38:22.401Z,9.75
2022-10-25T09:40:58.165Z,5.85
2022-10-25T09:43:36.375Z,11.30
2022-10-25T09:46:14.785Z,12.10
2022-10-25T09:48:50.581Z,11.65
2022-10-25T09:52:36.657Z,9.43
2022-10-25T09:55:30.747Z,7.72
2022-10-25T09:58:00.292Z,10.02
2022-10-25T10:00:31.826Z,9.50
2022-10-25T10:03:02.430Z,9.65
2022-10-25T10:05:33.229Z,9.65
2022-10-25T10:08:04.309Z,12.35
2022-10-25T10:10:37.211Z,8.10
2022-10-25T10:13:15.979Z,7.38
2022-10-25T10:15:54.316Z,9.98
2022-10-25T10:18:28.046Z,9.50
2022-10-25T10:21:08.112Z,10.52
2022-10-25T10:23:51.048Z,12.65
2022-10-25T10:26:27.919Z,8.35
2022-10-25T10:29:14.124Z,14.48
2022-10-25T10:31:51.590Z,8.93
2022-10-25T10:34:31.834Z,8.70
2022-10-25T10:37:07.778Z,8.05
2022-10-25T10:39:53.334Z,9.27
2022-10-25T10:42:24.844Z,11.77
2022-10-25T10:45:17.813Z,11.77
2022-10-25T10:47:58.200Z,13.13
2022-10-25T10:50:32.990Z,16.33
2022-10-25T10:53:06.527Z,9.82
2022-10-25T10:55:40.274Z,9.95
2022-10-25T10:58:18.217Z,10.18
2022-10-25T11:00:53.557Z,11.80
2022-10-25T11:04:00.026Z,12.80
2022-10-25T11:06:32.574Z,11.52
2022-10-25T11:09:18.102Z,10.90
2022-10-25T11:12:08.426Z,11.27
2022-10-25T11:14:37.896Z,9.15
2022-10-25T11:17:12.686Z,10.55
2022-10-25T11:20:20.687Z,11.93
2022-10-25T11:23:05.384Z,10.48
2022-10-25T11:25:43.154Z,9.07
2022-10-25T11:28:38.963Z,9.15
2022-10-25T11:31:20.529Z,9.38
2022-10-25T11:34:06.664Z,10.87
2022-10-25T11:36:57.576Z,8.25
2022-10-25T11:39:48.079Z,14.60
2022-10-25T11:42:59.356Z,9.48
2022-10-25T11:45:40.952Z,10.18
2022-10-25T11:48:42.297Z,11.13
2022-10-25T11:51:23.246Z,10.93
2022-10-25T11:54:20.677Z,10.75
2022-10-25T11:57:04.548Z,11.85
2022-10-25T11:59:46.849Z,10.93
2022-10-25T12:05:23.404Z,10.93
2022-10-25T12:08:01.553Z,10.40
2022-10-25T12:10:37.802Z,11.50
2022-10-25T12:13:17.303Z,14.85
2022-10-25T12:15:49.608Z,12.90
2022-10-25T12:18:26.838Z,9.23
2022-10-25T12:20:57.514Z,11.70
2022-10-25T12:23:28.812Z,9.43
2022-10-25T12:26:03.612Z,11.53
2022-10-25T12:28:45.510Z,9.25
2022-10-25T12:31:20.334Z,12.15
2022-10-25T12:33:59.669Z,14.30
2022-10-25T12:36:35.853Z,9.57
2022-10-25T12:39:15.383Z,10.30
2022-10-25T12:41:50.364Z,11.07
2022-10-25T12:44:44.782Z,7.97
2022-10-25T12:47:40.114Z,7.53
2022-10-25T12:52:33.910Z,8.52
2022-10-25T12:55:30.895Z,11.10
2022-10-25T12:58:21.675Z,9.55
2022-10-25T13:01:12.361Z,11.05
2022-10-25T13:04:37.591Z,10.43
2022-10-25T13:07:09.210Z,9.88
2022-10-25T13:09:41.610Z,10.02
2022-10-25T13:12:23.800Z,8.68
2022-10-25T13:14:56.426Z,11.98
2022-10-25T13:18:03.210Z,12.02
2022-10-25T13:20:53.231Z,8.07
2022-10-25T13:24:02.929Z,6.68
2022-10-25T13:27:19.003Z,8.65
2022-10-25T13:30:32.328Z,8.73
2022-10-25T13:33:34.270Z,13.02
2022-10-25T13:36:06.262Z,11.07
2022-10-25T13:38:40.664Z,12.00
2022-10-25T13:41:21.075Z,7.20
2022-10-25T13:44:02.047Z,8.25
2022-10-25T13:46:38.267Z,14.52
2022-10-25T13:49:33.185Z,11.15
2022-10-25T13:52:05.518Z,6.82
2022-10-25T13:54:49.563Z,13.65
2022-10-25T13:57:50.696Z,12.20
2022-10-25T14:00:41.484Z,10.98
2022-10-25T14:03:43.027Z,11.70
2022-10-25T14:06:31.253Z,7.95
2022-10-25T14:09:28.887Z,11.38
2022-10-25T14:12:16.743Z,10.98
2022-10-25T14:15:01.743Z,16.17
2022-10-25T14:17:37.721Z,12.05
2022-10-25T14:20:18.277Z,10.68
2022-10-25T14:22:55.049Z,12.57
2022-10-25T14:25:26.936Z,12.07
2022-10-25T14:28:08.952Z,13.57
2022-10-25T14:30:43.466Z,10.10
2022-10-25T14:33:29.134Z,11.40
2022-10-25T14:36:08.793Z,8.63
2022-10-25T14:38:52.441Z,12.05
2022-10-25T14:41:27.065Z,16.58
2022-10-25T14:43:57.378Z,6.07
2022-10-25T14:46:30.326Z,10.88
2022-10-25T14:49:02.938Z,11.00
2022-10-25T14:51:35.810Z,11.13
2022-10-25T14:54:08.082Z,11.73
2022-10-25T14:59:20.562Z,11.55
2022-10-25T15:01:55.857Z,13.25
2022-10-25T15:04:33.761Z,13.57
2022-10-25T15:07:04.883Z,13.35
2022-10-25T15:09:42.601Z,12.55
2022-10-25T15:12:22.235Z,12.38
2022-10-25T15:14:51.703Z,11.77
2022-10-25T15:17:28.339Z,8.63
2022-10-25T15:20:06.670Z,9.38
2022-10-25T15:22:46.624Z,12.77
2022-10-25T15:25:29.814Z,9.65
2022-10-25T15:28:09.430Z,10.43
2022-10-25T15:30:41.357Z,14.27
2022-10-25T15:33:15.475Z,12.10
2022-10-25T15:35:51.375Z,18.55
2022-10-25T15:38:21.189Z,14.90
2022-10-25T15:40:51.786Z,11.80
2022-10-25T15:43:21.328Z,24.65
2022-10-25T15:45:50.701Z,13.68
2022-10-25T15:48:23.167Z,13.93
2022-10-25T15:52:28.987Z,20.50
2022-10-25T15:54:58.632Z,15.32
2022-10-25T15:57:28.610Z,16.58
2022-10-25T15:59:58.071Z,20.50
2022-10-25T16:02:28.750Z,18.92
2022-10-25T16:04:58.126Z,19.30
2022-10-25T16:07:28.963Z,21.20
2022-10-25T16:09:58.307Z,24.85
2022-10-25T16:12:33.881Z,25.45
2022-10-25T16:15:03.574Z,22.05
2022-10-25T16:17:33.291Z,19.80
2022-10-25T16:20:02.582Z,23.15
2022-10-25T16:22:33.395Z,42.00
2022-10-25T16:25:02.695Z,26.30
2022-10-25T16:27:32.067Z,20.17
2022-10-25T16:30:01.323Z,17.38
2022-10-25T16:32:30.648Z,14.02
2022-10-25T16:34:59.931Z,19.70
2022-10-25T16:37:31.999Z,24.20
2022-10-25T16:40:01.339Z,19.05
2022-10-25T16:42:33.286Z,17.98
2022-10-25T16:45:03.506Z,15.00
2022-10-25T16:47:32.835Z,18.02
2022-10-25T16:50:02.155Z,29.52
2022-10-25T16:52:32.963Z,23.17
2022-10-25T16:55:02.269Z,15.00
2022-10-25T16:57:31.549Z,22.50
2022-10-25T17:00:00.842Z,16.52
2022-10-25T17:02:30.408Z,20.30
2022-10-25T17:05:00.815Z,17.77
2022-10-25T17:07:31.783Z,32.95
2022-10-25T17:10:01.206Z,29.50
2022-10-25T17:12:30.680Z,28.10
2022-10-25T17:15:00.133Z,22.48
2022-10-25T17:17:29.622Z,17.55
2022-10-25T17:19:58.920Z,18.25
2022-10-25T17:22:28.933Z,18.38
2022-10-25T17:25:00.020Z,11.10
2022-10-25T17:27:29.350Z,21.05
2022-10-25T17:29:58.727Z,16.38
2022-10-25T17:32:28.150Z,16.60
2022-10-25T17:34:57.739Z,14.90
2022-10-25T17:37:27.146Z,14.13
2022-10-25T17:39:56.490Z,15.85
2022-10-25T17:42:28.566Z,13.02
2022-10-25T17:44:58.197Z,12.20
2022-10-25T17:47:27.467Z,14.70
2022-10-25T17:50:01.708Z,17.40
2022-10-25T17:52:31.963Z,10.85
2022-10-25T17:55:01.318Z,20.48
2022-10-25T17:57:32.146Z,21.45
2022-10-25T18:00:01.491Z,14.55
2022-10-25T18:02:30.920Z,18.20
2022-10-25T18:05:19.338Z,23.00
2022-10-25T18:07:51.043Z,17.75
2022-10-25T18:10:21.266Z,13.73
2022-10-25T18:12:52.130Z,17.17
2022-10-25T18:15:23.260Z,23.77
2022-10-25T18:17:52.728Z,24.08
2022-10-25T18:20:22.514Z,14.93
2022-10-25T18:22:53.219Z,15.45
2022-10-25T18:25:22.762Z,24.88
2022-10-25T18:27:54.595Z,24.45
2022-10-25T18:30:24.529Z,22.13
2022-10-25T18:32:54.503Z,18.52
2022-10-25T18:35:23.802Z,23.27
2022-10-25T18:37:54.029Z,16.65
2022-10-25T18:40:23.349Z,19.20
2022-10-25T18:42:54.191Z,14.10
2022-10-25T18:45:23.827Z,16.58
2022-10-25T18:47:54.171Z,11.88
2022-10-25T18:52:27.732Z,18.10
2022-10-25T18:54:57.799Z,16.97
2022-10-25T18:57:27.355Z,17.63
2022-10-25T18:59:56.705Z,21.33
2022-10-25T19:02:26.076Z,15.52
2022-10-25T19:04:55.765Z,15.55
2022-10-25T19:07:26.735Z,14.90
2022-10-25T19:09:56.164Z,14.73
2022-10-25T19:12:25.776Z,15.70
2022-10-25T19:14:55.112Z,10.23
2022-10-25T19:17:24.430Z,12.60
2022-10-25T19:19:53.750Z,13.85
2022-10-25T19:22:23.069Z,8.68
2022-10-25T19:24:54.042Z,16.27
2022-10-25T19:27:23.771Z,10.48
2022-10-25T19:29:53.227Z,14.15
2022-10-25T19:32:22.564Z,12.98
2022-10-25T19:34:52.125Z,11.43
2022-10-25T19:37:21.464Z,10.88
2022-10-25T19:39:51.719Z,13.38
2022-10-25T19:42:23.446Z,12.80
2022-10-25T19:44:54.157Z,9.18
2022-10-25T19:47:23.611Z,10.57
2022-10-25T19:49:53.088Z,13.23
2022-10-25T19:52:22.428Z,10.52
2022-10-25T19:54:52.013Z,10.43
2022-10-25T19:57:22.884Z,9.02
2022-10-25T19:59:52.232Z,10.75
2022-10-25T20:02:21.771Z,10.80
2022-10-25T20:04:51.245Z,11.30
2022-10-25T20:07:20.610Z,12.05
2022-10-25T20:09:50.035Z,12.90
2022-10-25T20:12:19.588Z,12.32
2022-10-25T20:14:50.303Z,19.02
2022-10-25T20:17:19.663Z,15.68
2022-10-25T20:19:48.974Z,14.63
2022-10-25T20:22:18.294Z,10.45
2022-10-25T20:24:47.676Z,12.63
2022-10-25T20:27:17.084Z,9.05
2022-10-25T20:29:46.398Z,11.45
2022-10-25T20:32:17.181Z,13.30
2022-10-25T20:34:46.505Z,11.10
2022-10-25T20:37:15.853Z,11.20
2022-10-25T20:39:48.301Z,9.88
2022-10-25T20:42:17.960Z,11.93
2022-10-25T20:44:47.318Z,12.48
2022-10-25T20:47:18.425Z,9.00
2022-10-25T20:49:47.967Z,15.38
2022-10-25T20:52:17.943Z,12.80
2022-10-25T20:54:47.246Z,8.88
2022-10-25T20:57:16.780Z,11.05
2022-10-25T20:59:46.106Z,10.50
2022-10-25T21:02:17.529Z,13.40
2022-10-25T21:04:53.837Z,13.02
2022-10-25T21:07:23.489Z,9.13
2022-10-25T21:09:52.708Z,8.82
2022-10-25T21:12:22.192Z,11.77
2022-10-25T21:14:51.536Z,9.82
2022-10-25T21:17:22.306Z,10.60
2022-10-25T21:19:51.648Z,11.82
2022-10-25T21:22:20.943Z,14.10
2022-10-25T21:24:50.278Z,12.75
2022-10-25T21:27:19.535Z,13.15
2022-10-25T21:29:48.933Z,12.35
2022-10-25T21:32:18.235Z,16.77
2022-10-25T21:34:49.102Z,12.48
2022-10-25T21:37:18.578Z,14.57
2022-10-25T21:39:48.179Z,14.20
2022-10-25T21:42:17.682Z,12.43
2022-10-25T21:44:47.100Z,15.77
2022-10-25T21:47:16.334Z,17.67
2022-10-25T21:52:26.737Z,13.50
2022-10-25T21:54:56.087Z,12.90
2022-10-25T21:57:25.346Z,12.15
2022-10-25T21:59:54.784Z,12.07
2022-10-25T22:02:24.461Z,13.02
2022-10-25T22:04:53.920Z,11.82
2022-10-25T22:07:23.629Z,14.95
2022-10-25T22:09:54.379Z,16.77
2022-10-25T22:12:23.595Z,12.65
2022-10-25T22:14:54.320Z,12.75
2022-10-25T22:17:23.901Z,13.80
2022-10-25T22:19:53.206Z,16.25
2022-10-25T22:22:22.429Z,12.82
2022-10-25T22:24:53.450Z,13.80
2022-10-25T22:27:22.880Z,11.02
2022-10-25T22:29:52.224Z,15.27
2022-10-25T22:32:21.513Z,14.02
2022-10-25T22:34:50.759Z,10.75
2022-10-25T22:37:20.048Z,15.82
2022-10-25T22:39:49.284Z,16.77
2022-10-25T22:42:20.536Z,12.93
2022-10-25T22:44:49.892Z,13.70
2022-10-25T22:47:19.210Z,11.65
2022-10-25T22:49:48.631Z,12.70
2022-10-25T22:52:18.068Z,13.45
2022-10-25T22:54:47.424Z,13.68
2022-10-25T22:57:16.731Z,14.30
2022-10-25T22:59:47.669Z,11.77
2022-10-25T23:02:17.111Z,15.88
2022-10-25T23:04:46.423Z,12.45
2022-10-25T23:07:15.773Z,11.45
2022-10-25T23:09:45.066Z,13.65
2022-10-25T23:12:14.556Z,18.48
2022-10-25T23:14:43.980Z,18.25
2022-10-25T23:17:14.674Z,12.35
2022-10-25T23:19:44.137Z,11.27
2022-10-25T23:22:13.531Z,12.45
2022-10-25T23:24:42.794Z,12.35
2022-10-25T23:27:12.134Z,13.95
2022-10-25T23:29:41.500Z,9.13
2022-10-25T23:32:10.946Z,13.82
2022-10-25T23:34:41.732Z,12.88
2022-10-25T23:37:11.214Z,11.30
2022-10-25T23:39:40.512Z,13.68
2022-10-25T23:42:09.820Z,11.07
2022-10-25T23:44:39.153Z,12.45
2022-10-25T23:47:08.407Z,13.73
2022-10-25T23:49:37.732Z,9.15
2022-10-25T23:52:08.455Z,7.78
2022-10-25T23:54:37.792Z,14.45
2022-10-25T23:57:07.149Z,13.10
2022-10-25T23:59:36.460Z,17.60
